Time;durP1;ratioP1;P1;durP2;ratioP2;P2;SDS_P1;SDS_P2;PMS_P1;PMS_P2;Temp;Humidity;BMP_temperature;BMP_pressure;BME280_temperature;BME280_humidity;BME280_pressure;Samples;Min_cycle;Max_cycle;Signal;HPM_P1;HPM_P2
2023/05/12 00:00:06;;;;;;;10.75;8.77;;;12.20;99.90;;;;;;4933068;28;20406;-77
2023/05/12 00:02:38;;;;;;;14.52;9.65;;;12.20;99.90;;;;;;4961032;28;20050;-78
2023/05/12 00:05:04;;;;;;;12.43;9.70;;;12.20;99.90;;;;;;4959210;28;20026;-76
2023/05/12 00:07:31;;;;;;;8.40;6.43;;;12.20;99.90;;;;;;4954562;28;20038;-76
2023/05/12 00:09:57;;;;;;;8.77;7.10;;;12.20;99.90;;;;;;4944812;28;20616;-76
2023/05/12 00:12:23;;;;;;;11.82;8.73;;;12.20;99.90;;;;;;4953746;28;20054;-77
2023/05/12 00:14:50;;;;;;;11.05;9.73;;;12.20;99.90;;;;;;4954580;28;20034;-77
2023/05/12 00:17:16;;;;;;;12.90;8.95;;;12.20;99.90;;;;;;4938047;28;20563;-77
2023/05/12 00:19:43;;;;;;;12.10;10.32;;;12.10;99.90;;;;;;4948181;28;20049;-77
2023/05/12 00:22:12;;;;;;;10.30;8.30;;;12.10;99.90;;;;;;4962550;28;20046;-77
2023/05/12 00:24:41;;;;;;;11.38;8.48;;;12.10;99.90;;;;;;4958700;28;20034;-77
2023/05/12 00:27:07;;;;;;;13.68;10.48;;;12.10;99.90;;;;;;4974801;28;20041;-77
2023/05/12 00:29:33;;;;;;;11.80;8.38;;;12.10;99.90;;;;;;4963180;28;20034;-76
2023/05/12 00:32:00;;;;;;;8.57;7.50;;;12.10;99.90;;;;;;4954605;28;20034;-76
2023/05/12 00:34:27;;;;;;;8.43;6.40;;;12.10;99.90;;;;;;4952810;28;20034;-76
2023/05/12 00:36:53;;;;;;;5.95;5.30;;;12.10;99.90;;;;;;4922826;28;20038;-76
2023/05/12 00:39:20;;;;;;;6.75;6.05;;;12.10;99.90;;;;;;4945488;28;20076;-77
2023/05/12 00:41:47;;;;;;;5.72;5.13;;;12.10;99.90;;;;;;4958659;28;21014;-76
2023/05/12 00:44:13;;;;;;;7.90;6.43;;;12.10;99.90;;;;;;4944382;28;20038;-78
2023/05/12 00:46:40;;;;;;;6.57;5.88;;;12.10;99.90;;;;;;4958184;28;20030;-77
2023/05/12 00:49:06;;;;;;;7.32;5.50;;;12.10;99.90;;;;;;4945383;28;20548;-77
2023/05/12 00:51:33;;;;;;;6.07;5.28;;;12.10;99.90;;;;;;4948306;28;20081;-79
2023/05/12 00:53:59;;;;;;;6.18;5.43;;;12.10;99.90;;;;;;4955447;28;20037;-77
2023/05/12 00:56:25;;;;;;;6.72;5.95;;;12.10;99.90;;;;;;4952356;28;20500;-78
2023/05/12 00:58:52;;;;;;;5.95;4.90;;;12.10;99.90;;;;;;4964461;28;20038;-76
2023/05/12 01:01:18;;;;;;;5.47;4.55;;;12.10;99.90;;;;;;4948866;28;20052;-77
2023/05/12 01:03:47;;;;;;;6.20;4.90;;;12.20;99.90;;;;;;4959967;28;20049;-77
2023/05/12 01:06:35;;;;;;;6.97;4.80;;;12.10;99.90;;;;;;4959685;28;21418;-78
2023/05/12 01:09:01;;;;;;;3.75;2.95;;;12.10;99.90;;;;;;4963852;28;20054;-77
2023/05/12 01:11:28;;;;;;;4.85;3.30;;;12.10;99.90;;;;;;4949308;28;20242;-78
2023/05/12 01:13:54;;;;;;;4.50;2.80;;;12.10;99.90;;;;;;4952215;28;20042;-76
2023/05/12 01:16:27;;;;;;;3.92;3.17;;;12.00;99.90;;;;;;4952836;28;20097;-77
2023/05/12 01:18:54;;;;;;;;;;;12.00;99.90;;;;;;4935713;28;20038;-77
2023/05/12 01:21:21;;;;;;;2.65;1.85;;;12.00;99.90;;;;;;4937853;28;21028;-76
2023/05/12 01:24:01;;;;;;;3.05;2.38;;;12.00;99.90;;;;;;4943639;28;20448;-77
2023/05/12 01:26:31;;;;;;;2.90;2.17;;;12.00;99.90;;;;;;4959415;28;20033;-78
2023/05/12 01:29:00;;;;;;;2.83;1.95;;;12.00;99.90;;;;;;4931327;28;20039;-76
2023/05/12 01:31:27;;;;;;;4.28;3.17;;;11.90;99.90;;;;;;4949022;28;20489;-77
2023/05/12 01:33:54;;;;;;;2.65;1.70;;;12.00;99.90;;;;;;4953561;28;20049;-77
2023/05/12 01:36:21;;;;;;;4.00;1.85;;;11.90;99.90;;;;;;4969634;28;20031;-76
2023/05/12 01:38:47;;;;;;;3.38;2.28;;;11.90;99.90;;;;;;4948460;28;20402;-76
2023/05/12 01:41:13;;;;;;;3.03;2.28;;;12.00;99.90;;;;;;4952539;28;20440;-76
2023/05/12 01:43:40;;;;;;;3.95;3.08;;;12.00;99.90;;;;;;4966664;28;20046;-77
2023/05/12 01:46:06;;;;;;;3.25;2.60;;;12.00;99.90;;;;;;4962605;28;20030;-76
2023/05/12 01:48:33;;;;;;;5.25;3.97;;;11.90;99.90;;;;;;4940703;28;20038;-76
2023/05/12 01:51:00;;;;;;;5.55;4.10;;;11.90;99.90;;;;;;4926938;28;20408;-76
2023/05/12 01:53:26;;;;;;;10.63;5.25;;;11.90;99.90;;;;;;4954196;28;20042;-76
2023/05/12 01:55:53;;;;;;;6.40;5.22;;;11.90;99.90;;;;;;4953080;28;20039;-76
2023/05/12 01:58:20;;;;;;;7.18;4.75;;;11.90;99.90;;;;;;4937625;28;20046;-76
2023/05/12 02:00:46;;;;;;;7.10;5.05;;;11.90;99.90;;;;;;4942571;28;20038;-75
2023/05/12 02:03:16;;;;;;;10.63;6.28;;;11.90;99.90;;;;;;4961689;28;20034;-76
2023/05/12 02:05:43;;;;;;;7.75;5.80;;;11.90;99.90;;;;;;4962753;28;20145;-75
2023/05/12 02:08:09;;;;;;;11.07;7.53;;;11.90;99.90;;;;;;4961843;28;20630;-75
2023/05/12 02:10:35;;;;;;;12.88;8.32;;;11.90;99.90;;;;;;4926382;28;20381;-75
2023/05/12 02:13:02;;;;;;;11.40;7.88;;;11.90;99.90;;;;;;4952130;28;20065;-76
2023/05/12 02:15:30;;;;;;;10.75;7.15;;;11.90;99.90;;;;;;4951381;28;20050;-75
2023/05/12 02:17:57;;;;;;;20.85;11.13;;;11.90;99.90;;;;;;4939658;28;20690;-75
2023/05/12 02:20:24;;;;;;;11.48;7.80;;;11.90;99.90;;;;;;4961648;28;20037;-75
2023/05/12 02:22:50;;;;;;;15.13;8.82;;;11.90;99.90;;;;;;4956820;28;20041;-75
2023/05/12 02:25:17;;;;;;;18.73;9.15;;;12.00;99.90;;;;;;4945722;28;20450;-75
2023/05/12 02:27:43;;;;;;;20.65;11.90;;;12.00;99.90;;;;;;4948302;28;20053;-76
2023/05/12 02:30:11;;;;;;;19.58;10.93;;;12.00;99.90;;;;;;4963931;28;20034;-75
2023/05/12 02:32:37;;;;;;;28.05;14.15;;;12.00;99.90;;;;;;4938795;28;20426;-75
2023/05/12 02:35:07;;;;;;;17.42;11.85;;;12.00;99.90;;;;;;4955758;28;20455;-74
2023/05/12 02:37:33;;;;;;;25.75;15.77;;;12.00;99.90;;;;;;4955394;28;21134;-76
2023/05/12 02:39:59;;;;;;;19.35;11.73;;;12.00;99.90;;;;;;4928328;28;20047;-75
2023/05/12 02:42:29;;;;;;;25.65;14.35;;;12.00;99.90;;;;;;4925049;28;20054;-76
2023/05/12 02:44:56;;;;;;;26.48;14.27;;;12.00;99.90;;;;;;4965533;28;20417;-75
2023/05/12 02:47:22;;;;;;;24.92;14.32;;;12.00;99.90;;;;;;4965531;28;20687;-75
2023/05/12 02:49:50;;;;;;;20.38;12.18;;;12.00;99.90;;;;;;4935234;28;20399;-75
2023/05/12 02:52:16;;;;;;;30.52;15.80;;;12.00;99.90;;;;;;4956607;28;20038;-75
2023/05/12 02:54:42;;;;;;;29.15;15.73;;;12.00;99.90;;;;;;4954635;28;20543;-75
2023/05/12 02:57:10;;;;;;;24.45;15.43;;;12.00;99.90;;;;;;4954167;28;20034;-76
2023/05/12 02:59:36;;;;;;;28.52;15.88;;;12.00;99.90;;;;;;4962036;28;20050;-75
2023/05/12 03:02:04;;;;;;;36.72;16.20;;;12.10;99.90;;;;;;4954570;28;22887;-75
2023/05/12 03:04:31;;;;;;;28.30;15.18;;;12.10;99.90;;;;;;4972003;28;20039;-75
2023/05/12 03:06:58;;;;;;;23.48;14.73;;;12.10;99.90;;;;;;4962944;28;20038;-75
2023/05/12 03:09:24;;;;;;;41.20;19.10;;;12.10;99.90;;;;;;4938168;28;20051;-75
2023/05/12 03:11:51;;;;;;;29.60;16.80;;;12.10;99.90;;;;;;4954088;28;20046;-75
2023/05/12 03:14:17;;;;;;;38.88;18.85;;;12.10;99.90;;;;;;4938946;28;20066;-75
2023/05/12 03:16:43;;;;;;;37.70;19.67;;;12.10;99.90;;;;;;4956019;28;20469;-75
2023/05/12 03:19:09;;;;;;;34.00;19.92;;;12.10;99.90;;;;;;4948320;28;20041;-75
2023/05/12 03:21:36;;;;;;;36.05;18.63;;;12.20;99.90;;;;;;4952040;28;20358;-75
2023/05/12 03:24:03;;;;;;;40.38;21.70;;;12.10;99.90;;;;;;4956609;28;20034;-75
2023/05/12 03:26:30;;;;;;;44.60;22.92;;;12.20;99.90;;;;;;4978718;28;20536;-75
2023/05/12 03:28:57;;;;;;;48.75;23.92;;;12.20;99.90;;;;;;4956214;28;20683;-75
2023/05/12 03:31:23;;;;;;;37.30;21.98;;;12.20;99.90;;;;;;4957734;28;20045;-76
2023/05/12 03:33:49;;;;;;;53.92;25.92;;;12.20;99.90;;;;;;4953538;28;20545;-75
2023/05/12 03:36:16;;;;;;;81.07;31.10;;;12.20;99.90;;;;;;4953643;28;20397;-75
2023/05/12 03:38:42;;;;;;;48.75;25.95;;;12.20;99.90;;;;;;4935821;28;20905;-76
2023/05/12 03:41:08;;;;;;;49.22;25.40;;;12.20;99.90;;;;;;4930018;28;22441;-76
2023/05/12 03:43:35;;;;;;;36.65;21.98;;;12.30;99.90;;;;;;4937339;28;20038;-75
2023/05/12 03:46:02;;;;;;;36.63;21.42;;;12.30;99.90;;;;;;4960491;28;20045;-76
2023/05/12 03:48:29;;;;;;;46.00;24.17;;;12.30;99.90;;;;;;4969493;28;20034;-76
2023/05/12 03:50:56;;;;;;;41.92;23.38;;;12.30;99.90;;;;;;4950294;28;20045;-76
2023/05/12 03:53:22;;;;;;;42.97;24.90;;;12.30;99.90;;;;;;4954534;28;20649;-75
2023/05/12 03:55:48;;;;;;;68.25;32.10;;;12.40;99.90;;;;;;4955779;28;20038;-76
2023/05/12 03:58:15;;;;;;;47.95;26.15;;;12.40;99.90;;;;;;4954601;28;20074;-75
2023/05/12 04:00:41;;;;;;;57.08;28.90;;;12.40;99.90;;;;;;4944798;28;20234;-75
2023/05/12 04:03:07;;;;;;;52.88;28.17;;;12.40;99.90;;;;;;4937244;28;20046;-76
2023/05/12 04:05:35;;;;;;;49.40;26.92;;;12.40;99.90;;;;;;4960930;28;20573;-75
2023/05/12 04:08:01;;;;;;;50.53;27.13;;;12.40;99.90;;;;;;4959200;28;20035;-75
2023/05/12 04:10:28;;;;;;;87.78;38.88;;;12.50;99.90;;;;;;4950043;28;20042;-75
2023/05/12 04:12:56;;;;;;;62.83;32.10;;;12.50;99.90;;;;;;4953767;28;20057;-75
2023/05/12 04:15:24;;;;;;;57.25;30.15;;;12.50;99.90;;;;;;4935852;28;20038;-75
2023/05/12 04:17:50;;;;;;;55.83;29.83;;;12.50;99.90;;;;;;4952135;28;20045;-75
2023/05/12 04:20:17;;;;;;;40.40;24.48;;;12.60;99.90;;;;;;4941813;28;20530;-76
2023/05/12 04:22:44;;;;;;;50.75;27.25;;;12.60;99.90;;;;;;4953767;28;20046;-75
2023/05/12 04:25:10;;;;;;;49.00;27.33;;;12.60;99.90;;;;;;4956564;28;20038;-76
2023/05/12 04:27:38;;;;;;;49.05;27.52;;;12.70;99.90;;;;;;4945194;28;20041;-75
2023/05/12 04:30:06;;;;;;;52.85;29.25;;;12.70;99.90;;;;;;4937484;28;20038;-75
2023/05/12 04:32:35;;;;;;;55.38;31.88;;;12.80;99.90;;;;;;4955033;28;20038;-75
2023/05/12 04:35:02;;;;;;;58.08;32.65;;;12.80;99.90;;;;;;4953906;28;20314;-76
2023/05/12 04:37:28;;;;;;;70.20;36.33;;;12.80;99.90;;;;;;4970481;28;20466;-75
2023/05/12 04:39:55;;;;;;;73.80;40.85;;;12.80;99.90;;;;;;4913925;28;20045;-75
2023/05/12 04:42:21;;;;;;;74.93;39.47;;;12.80;99.90;;;;;;4938730;28;20659;-76
2023/05/12 04:44:47;;;;;;;57.00;31.48;;;12.90;99.90;;;;;;4954724;28;20034;-76
2023/05/12 04:47:14;;;;;;;59.72;32.10;;;12.90;99.90;;;;;;4958165;28;20045;-75
2023/05/12 04:49:40;;;;;;;68.82;35.63;;;12.90;99.90;;;;;;4954133;28;20398;-76
2023/05/12 04:52:06;;;;;;;71.07;38.40;;;12.90;99.90;;;;;;4954554;28;20513;-76
2023/05/12 04:54:33;;;;;;;65.97;35.95;;;13.00;99.90;;;;;;4954801;28;20496;-75
2023/05/12 04:56:59;;;;;;;63.35;34.75;;;13.00;99.90;;;;;;4954289;28;20515;-76
2023/05/12 04:59:25;;;;;;;66.07;37.95;;;13.00;99.90;;;;;;4914529;28;20046;-76
2023/05/12 05:01:53;;;;;;;63.35;36.50;;;13.10;99.90;;;;;;4952111;28;20042;-76
2023/05/12 05:04:20;;;;;;;57.20;34.22;;;13.10;99.90;;;;;;4954138;28;20030;-76
2023/05/12 05:06:46;;;;;;;60.35;35.97;;;13.10;99.90;;;;;;4958727;28;20331;-76
2023/05/12 05:09:14;;;;;;;61.88;37.33;;;13.10;99.90;;;;;;4954186;28;20659;-76
2023/05/12 05:11:40;;;;;;;53.67;33.20;;;13.10;99.90;;;;;;4976386;28;20049;-76
2023/05/12 05:14:06;;;;;;;58.13;33.60;;;13.10;99.90;;;;;;4970223;28;20050;-76
2023/05/12 05:16:34;;;;;;;59.05;36.40;;;13.20;99.90;;;;;;4952169;28;20473;-76
2023/05/12 05:19:01;;;;;;;56.67;36.35;;;13.20;99.90;;;;;;4948141;28;20413;-76
2023/05/12 05:21:27;;;;;;;54.00;34.15;;;13.20;99.90;;;;;;4948308;28;21682;-76
2023/05/12 05:23:53;;;;;;;56.90;33.97;;;13.20;99.90;;;;;;4936414;28;20050;-76
2023/05/12 05:26:21;;;;;;;57.50;36.47;;;13.30;99.90;;;;;;4953580;28;20045;-76
2023/05/12 05:28:47;;;;;;;57.70;34.95;;;13.30;99.90;;;;;;4954406;28;20041;-76
2023/05/12 05:31:15;;;;;;;59.58;36.95;;;13.30;99.90;;;;;;4924083;28;20049;-76
2023/05/12 05:33:43;;;;;;;51.53;32.72;;;13.40;99.90;;;;;;4937584;28;20038;-76
2023/05/12 05:36:09;;;;;;;45.85;29.50;;;13.50;99.90;;;;;;4936098;28;20490;-76
2023/05/12 05:38:36;;;;;;;69.35;42.17;;;13.60;99.90;;;;;;4952752;28;20089;-76
2023/05/12 05:41:02;;;;;;;52.95;34.83;;;13.70;99.90;;;;;;4911859;28;20034;-76
2023/05/12 05:43:29;;;;;;;44.58;30.92;;;13.70;99.90;;;;;;4951950;28;20370;-75
2023/05/12 05:45:57;;;;;;;47.00;29.55;;;13.80;99.90;;;;;;4952675;28;20378;-77
2023/05/12 05:48:24;;;;;;;54.58;36.58;;;13.80;99.90;;;;;;4959875;28;20041;-76
2023/05/12 05:50:51;;;;;;;55.72;35.35;;;13.90;99.90;;;;;;4948614;28;20030;-75
2023/05/12 05:53:18;;;;;;;51.95;34.88;;;13.90;99.90;;;;;;4942897;28;20038;-76
2023/05/12 05:55:45;;;;;;;47.83;32.85;;;13.90;99.90;;;;;;4958575;28;20030;-76
2023/05/12 05:58:13;;;;;;;44.63;31.42;;;14.00;99.90;;;;;;4954382;28;20397;-75
2023/05/12 06:00:41;;;;;;;50.50;34.85;;;14.00;99.90;;;;;;4924280;28;20551;-75
2023/05/12 06:03:08;;;;;;;45.65;31.98;;;14.10;99.90;;;;;;4949912;28;20053;-75
2023/05/12 06:05:34;;;;;;;47.78;33.42;;;14.10;99.90;;;;;;4951393;28;20492;-75
2023/05/12 06:08:00;;;;;;;54.33;34.72;;;14.10;99.90;;;;;;4944525;28;20049;-75
2023/05/12 06:10:27;;;;;;;57.03;42.85;;;14.10;99.90;;;;;;4933256;28;20406;-76
2023/05/12 06:12:54;;;;;;;44.30;32.28;;;14.20;99.90;;;;;;4955051;28;20053;-75
2023/05/12 06:15:21;;;;;;;44.97;32.58;;;14.20;99.90;;;;;;4968280;28;20038;-76
2023/05/12 06:17:49;;;;;;;44.55;33.40;;;14.30;99.90;;;;;;4952191;28;20405;-76
2023/05/12 06:20:15;;;;;;;46.00;34.33;;;14.30;99.90;;;;;;4940338;28;21384;-76
2023/05/12 06:22:43;;;;;;;46.50;35.25;;;14.30;99.90;;;;;;4948792;28;20042;-75
2023/05/12 06:25:09;;;;;;;40.88;30.48;;;14.30;99.90;;;;;;4935850;28;20401;-76
2023/05/12 06:27:37;;;;;;;41.33;30.58;;;14.30;99.90;;;;;;4941336;28;20030;-75
2023/05/12 06:30:06;;;;;;;44.75;32.00;;;14.40;99.90;;;;;;4933023;28;20046;-75
2023/05/12 06:32:32;;;;;;;40.28;31.45;;;14.40;99.90;;;;;;4942984;28;20591;-75
2023/05/12 06:34:59;;;;;;;38.65;28.77;;;14.50;99.90;;;;;;4947790;28;20045;-75
2023/05/12 06:37:25;;;;;;;49.20;35.50;;;14.50;99.90;;;;;;4933875;28;20031;-75
2023/05/12 06:39:51;;;;;;;43.58;32.00;;;14.60;99.90;;;;;;4924517;28;20062;-75
2023/05/12 06:42:17;;;;;;;37.10;28.48;;;14.60;99.90;;;;;;4949491;28;20046;-75
2023/05/12 06:44:50;;;;;;;37.55;29.13;;;14.70;99.90;;;;;;4954065;28;20396;-75
2023/05/12 06:47:20;;;;;;;36.28;28.05;;;14.80;99.90;;;;;;4969769;28;20042;-75
2023/05/12 06:49:46;;;;;;;35.38;27.60;;;14.90;99.90;;;;;;4966832;28;20035;-76
2023/05/12 06:52:16;;;;;;;34.83;28.40;;;15.10;99.90;;;;;;4957948;28;20041;-74
2023/05/12 06:54:42;;;;;;;32.85;25.83;;;15.20;99.90;;;;;;4939886;28;20467;-76
2023/05/12 06:57:08;;;;;;;37.58;30.48;;;15.20;99.90;;;;;;4951823;28;20035;-77
2023/05/12 06:59:35;;;;;;;32.22;25.67;;;15.40;99.90;;;;;;4940561;28;20038;-77
2023/05/12 07:02:01;;;;;;;28.42;23.27;;;15.60;99.90;;;;;;4950954;28;20038;-75
2023/05/12 07:04:28;;;;;;;25.02;20.92;;;15.70;99.90;;;;;;4950518;28;20496;-76
2023/05/12 07:06:55;;;;;;;27.33;23.70;;;15.90;99.90;;;;;;4953771;28;20034;-76
2023/05/12 07:09:21;;;;;;;26.45;22.02;;;16.20;99.90;;;;;;4950168;28;20087;-76
2023/05/12 07:11:48;;;;;;;23.25;20.67;;;16.40;99.90;;;;;;4941923;28;20085;-76
2023/05/12 07:14:14;;;;;;;26.45;20.77;;;16.50;99.90;;;;;;4961116;28;20706;-76
2023/05/12 07:16:40;;;;;;;20.15;17.42;;;16.70;99.90;;;;;;4954783;28;21084;-76
2023/05/12 07:19:08;;;;;;;24.52;21.92;;;16.90;99.90;;;;;;4947081;28;21549;-77
2023/05/12 07:21:35;;;;;;;24.10;19.77;;;16.90;99.90;;;;;;4951734;28;20037;-77
2023/05/12 07:24:01;;;;;;;17.42;15.52;;;17.00;99.90;;;;;;4953656;28;20042;-78
2023/05/12 07:26:28;;;;;;;18.73;16.23;;;17.00;99.90;;;;;;4921955;28;20043;-77
2023/05/12 07:28:54;;;;;;;18.10;16.17;;;16.90;99.90;;;;;;4953412;28;20030;-75
2023/05/12 07:31:21;;;;;;;18.90;16.20;;;17.00;99.90;;;;;;4958462;28;20068;-76
2023/05/12 07:33:47;;;;;;;18.48;16.55;;;16.90;99.90;;;;;;4960977;28;22738;-77
2023/05/12 07:36:13;;;;;;;20.48;17.75;;;16.80;99.90;;;;;;4975399;28;20046;-77
2023/05/12 07:38:40;;;;;;;21.60;18.65;;;16.80;99.90;;;;;;4952885;28;20403;-77
2023/05/12 07:41:06;;;;;;;19.95;17.88;;;16.80;99.90;;;;;;4928034;28;20041;-78
2023/05/12 07:43:33;;;;;;;18.33;16.10;;;16.90;99.90;;;;;;4952428;28;20034;-77
2023/05/12 07:45:59;;;;;;;16.48;14.80;;;16.90;99.90;;;;;;4956208;28;20038;-78
2023/05/12 07:48:26;;;;;;;14.13;12.35;;;16.90;99.90;;;;;;4970058;28;20030;-78
2023/05/12 07:50:52;;;;;;;12.40;11.23;;;17.00;99.90;;;;;;4951058;28;20049;-77
2023/05/12 07:53:19;;;;;;;14.55;13.10;;;17.00;99.90;;;;;;4961983;28;20058;-77
2023/05/12 07:55:45;;;;;;;16.08;14.35;;;17.10;99.90;;;;;;4942606;28;20418;-77
2023/05/12 07:58:12;;;;;;;15.68;14.13;;;17.30;99.90;;;;;;4953225;28;20045;-76
2023/05/12 08:00:39;;;;;;;13.18;11.65;;;17.30;99.90;;;;;;4964387;28;20867;-77
2023/05/12 08:03:06;;;;;;;13.90;12.48;;;17.40;99.90;;;;;;4961196;28;20053;-77
2023/05/12 08:05:32;;;;;;;14.40;12.07;;;17.40;99.90;;;;;;4957860;28;20661;-78
2023/05/12 08:07:59;;;;;;;13.50;11.75;;;17.50;99.90;;;;;;4954674;28;20041;-76
2023/05/12 08:10:28;;;;;;;13.88;12.50;;;17.60;99.90;;;;;;4951391;28;20445;-77
2023/05/12 08:12:55;;;;;;;11.00;9.90;;;17.70;99.90;;;;;;4962294;28;20046;-77
2023/05/12 08:15:21;;;;;;;8.27;7.47;;;17.70;99.90;;;;;;4960843;28;20533;-77
2023/05/12 08:17:47;;;;;;;10.10;9.10;;;17.80;99.90;;;;;;4954130;28;20034;-77
2023/05/12 08:20:14;;;;;;;7.88;7.07;;;17.90;99.90;;;;;;4943452;28;20037;-76
2023/05/12 08:22:41;;;;;;;8.27;7.43;;;18.00;99.90;;;;;;4951733;28;20049;-77
2023/05/12 08:25:07;;;;;;;8.07;7.28;;;18.00;99.90;;;;;;4953385;28;20041;-76
2023/05/12 08:27:33;;;;;;;8.80;7.82;;;18.00;99.90;;;;;;4952366;28;20042;-77
2023/05/12 08:30:00;;;;;;;8.23;6.60;;;18.00;99.90;;;;;;4942151;28;20092;-77
2023/05/12 08:32:26;;;;;;;7.70;7.00;;;18.00;99.90;;;;;;4946216;28;20042;-77
2023/05/12 08:34:53;;;;;;;6.40;5.80;;;18.00;99.90;;;;;;4961019;28;20443;-76
2023/05/12 08:37:19;;;;;;;5.05;4.50;;;18.00;99.90;;;;;;4956854;28;20497;-77
2023/05/12 08:39:45;;;;;;;5.45;4.95;;;18.00;99.90;;;;;;4941704;28;20397;-76
2023/05/12 08:42:54;;;;;;;6.47;4.57;;;18.20;99.90;;;;;;4951294;28;20053;-77
2023/05/12 08:45:24;;;;;;;3.95;3.55;;;18.40;99.90;;;;;;4951363;28;20417;-77
2023/05/12 08:47:52;;;;;;;4.22;3.83;;;18.50;99.90;;;;;;4952550;28;20158;-78
2023/05/12 08:50:21;;;;;;;9.32;8.13;;;18.60;99.90;;;;;;4942125;28;20049;-78
2023/05/12 08:52:48;;;;;;;5.43;4.50;;;18.80;99.90;;;;;;4938903;28;20050;-77
2023/05/12 08:55:15;;;;;;;5.97;5.13;;;19.00;99.90;;;;;;4960813;28;20054;-76
2023/05/12 08:57:44;;;;;;;5.03;4.53;;;19.10;99.90;;;;;;4959316;28;20999;-77
2023/05/12 09:00:11;;;;;;;4.28;3.88;;;19.10;99.90;;;;;;4943234;28;20038;-76
2023/05/12 09:02:42;;;;;;;4.80;3.92;;;19.00;99.90;;;;;;4953721;28;20042;-77
2023/05/12 09:05:09;;;;;;;4.70;4.15;;;19.00;99.90;;;;;;4951184;28;20038;-76
2023/05/12 09:07:41;;;;;;;4.28;3.85;;;19.00;99.90;;;;;;4952841;28;20065;-78
2023/05/12 09:10:15;;;;;;;4.10;3.70;;;19.20;99.90;;;;;;4924539;28;20110;-78
2023/05/12 09:12:45;;;;;;;3.33;3.03;;;19.30;99.90;;;;;;4954781;28;20042;-80
2023/05/12 09:15:18;;;;;;;3.30;2.80;;;19.40;99.90;;;;;;4960999;28;20034;-78
2023/05/12 09:17:45;;;;;;;2.55;1.98;;;19.60;99.90;;;;;;4976018;28;20441;-80
2023/05/12 09:20:12;;;;;;;3.50;2.60;;;19.80;99.90;;;;;;4945455;28;20049;-76
2023/05/12 09:22:39;;;;;;;3.15;2.20;;;19.90;99.90;;;;;;4951701;28;20053;-76
2023/05/12 09:25:20;;;;;;;3.80;1.75;;;20.00;99.90;;;;;;4935341;28;20057;-76
2023/05/12 09:27:48;;;;;;;2.03;1.40;;;20.10;99.90;;;;;;4951197;28;20041;-77
2023/05/12 09:30:14;;;;;;;1.58;1.15;;;20.10;99.90;;;;;;4941008;28;20441;-76
2023/05/12 09:32:41;;;;;;;4.45;1.48;;;20.00;99.90;;;;;;4935245;28;20042;-76
2023/05/12 09:35:10;;;;;;;1.80;1.40;;;20.10;99.90;;;;;;4960659;28;20049;-76
2023/05/12 09:37:37;;;;;;;1.30;0.80;;;20.10;99.90;;;;;;4931127;28;20065;-76
2023/05/12 09:40:06;;;;;;;2.15;1.50;;;20.10;99.90;;;;;;4948084;28;20420;-75
2023/05/12 09:42:34;;;;;;;1.58;1.00;;;20.10;99.90;;;;;;4950702;28;20049;-76
2023/05/12 09:45:05;;;;;;;1.85;1.00;;;20.10;99.90;;;;;;4952680;28;20042;-75
2023/05/12 09:47:36;;;;;;;1.38;0.55;;;20.20;99.90;;;;;;4967034;28;20430;-77
2023/05/12 09:50:04;;;;;;;1.52;0.88;;;20.40;99.90;;;;;;4939889;28;20034;-76
2023/05/12 09:52:37;;;;;;;2.38;1.20;;;20.60;99.90;;;;;;4952484;28;20034;-76
2023/05/12 09:55:10;;;;;;;2.25;0.90;;;20.80;99.90;;;;;;4958960;28;20778;-76
2023/05/12 09:57:42;;;;;;;2.08;1.02;;;20.80;99.90;;;;;;4960331;28;20367;-76
2023/05/12 10:00:12;;;;;;;1.85;0.93;;;20.70;99.90;;;;;;4950255;28;20030;-76
2023/05/12 10:02:42;;;;;;;4.70;1.20;;;20.60;99.90;;;;;;4952061;28;20402;-76
2023/05/12 10:05:19;;;;;;;1.70;0.90;;;20.70;99.90;;;;;;4953321;28;20038;-76
2023/05/12 10:07:53;;;;;;;3.60;0.95;;;20.80;99.90;;;;;;4969235;28;20042;-75
2023/05/12 10:10:22;;;;;;;1.88;0.80;;;20.90;99.90;;;;;;4950990;28;20513;-77
2023/05/12 10:12:50;;;;;;;4.40;2.10;;;20.90;99.90;;;;;;4958872;28;20072;-78
2023/05/12 10:15:18;;;;;;;2.60;1.20;;;21.00;99.90;;;;;;4958533;28;20503;-85
2023/05/12 10:17:45;;;;;;;1.27;0.90;;;21.10;99.90;;;;;;4950616;28;20030;-76
2023/05/12 10:20:12;;;;;;;1.35;0.90;;;21.10;99.90;;;;;;4948141;28;20478;-76
2023/05/12 10:22:39;;;;;;;1.55;0.90;;;21.20;99.90;;;;;;4950791;28;20050;-75
2023/05/12 10:25:07;;;;;;;2.58;0.77;;;21.20;99.90;;;;;;4964120;28;21168;-76
2023/05/12 10:27:34;;;;;;;2.70;1.25;;;21.20;99.90;;;;;;4948994;28;20054;-76
2023/05/12 10:30:03;;;;;;;1.50;0.88;;;21.20;99.90;;;;;;4943018;28;20042;-76
2023/05/12 10:32:29;;;;;;;1.20;0.80;;;21.20;99.90;;;;;;4952797;28;20030;-76
2023/05/12 10:35:07;;;;;;;2.58;1.05;;;21.10;99.90;;;;;;4955102;28;20037;-77
2023/05/12 10:37:36;;;;;;;1.20;0.73;;;21.30;99.90;;;;;;4958541;28;20031;-76
2023/05/12 10:40:03;;;;;;;0.93;0.60;;;21.30;99.90;;;;;;4949735;28;20034;-76
2023/05/12 10:42:41;;;;;;;2.42;0.80;;;21.50;99.90;;;;;;4950868;28;20042;-76
2023/05/12 10:45:16;;;;;;;2.38;1.10;;;21.70;99.90;;;;;;4952716;28;20042;-76
2023/05/12 10:47:43;;;;;;;1.65;0.85;;;21.70;99.90;;;;;;4952447;28;20038;-75
2023/05/12 10:50:12;;;;;;;1.17;0.77;;;21.70;99.90;;;;;;4945041;28;20045;-75
2023/05/12 10:52:51;;;;;;;2.60;1.30;;;21.80;99.90;;;;;;4955250;28;20066;-76
2023/05/12 10:55:18;;;;;;;3.00;1.10;;;21.90;99.90;;;;;;4963389;28;20034;-81
2023/05/12 10:57:50;;;;;;;3.10;2.30;;;21.90;99.90;;;;;;4961777;28;20034;-75
2023/05/12 11:00:23;;;;;;;2.35;0.95;;;22.10;99.90;;;;;;4952672;28;20689;-76
2023/05/12 11:02:50;;;;;;;2.83;1.00;;;22.40;99.90;;;;;;4951779;28;20488;-75
2023/05/12 11:05:16;;;;;;;1.65;1.10;;;22.60;99.90;;;;;;4936520;28;20610;-76
2023/05/12 11:07:48;;;;;;;2.30;1.20;;;23.00;99.90;;;;;;4950654;28;20079;-80
2023/05/12 11:10:15;;;;;;;1.23;0.93;;;23.30;99.90;;;;;;4940528;28;20034;-75
2023/05/12 11:12:42;;;;;;;1.65;0.70;;;23.60;99.90;;;;;;4951850;28;20061;-76
2023/05/12 11:15:10;;;;;;;2.17;1.05;;;23.90;99.90;;;;;;4939520;28;20073;-74
2023/05/12 11:17:39;;;;;;;1.77;1.00;;;24.20;99.90;;;;;;4962667;28;20405;-77
2023/05/12 11:20:08;;;;;;;1.65;0.90;;;24.60;99.90;;;;;;4939515;28;20061;-76
2023/05/12 11:22:35;;;;;;;1.77;0.80;;;24.80;99.90;;;;;;4970727;28;20160;-75
2023/05/12 11:25:11;;;;;;;1.40;0.60;;;25.00;99.90;;;;;;4954096;28;20046;-77
2023/05/12 11:27:41;;;;;;;4.00;0.60;;;25.30;99.90;;;;;;4952522;28;20034;-75
2023/05/12 11:30:09;;;;;;;2.58;0.70;;;25.50;99.90;;;;;;4946872;28;20045;-76
2023/05/12 11:32:36;;;;;;;1.88;1.10;;;25.90;99.90;;;;;;4951414;28;20050;-75
2023/05/12 11:35:11;;;;;;;3.55;1.98;;;26.10;99.90;;;;;;4953212;28;20426;-77
2023/05/12 11:37:39;;;;;;;1.77;1.40;;;26.00;98.60;;;;;;4972461;28;20041;-76
2023/05/12 11:40:20;;;;;;;1.73;1.30;;;25.70;97.90;;;;;;4950358;28;20030;-75
2023/05/12 11:42:50;;;;;;;1.60;0.70;;;25.70;98.90;;;;;;4961278;28;20476;-75
2023/05/12 11:45:29;;;;;;;4.50;1.02;;;25.80;97.60;;;;;;4955371;28;20034;-74
2023/05/12 11:48:06;;;;;;;1.60;0.70;;;25.60;97.50;;;;;;4955758;28;20030;-74
2023/05/12 11:50:32;;;;;;;1.55;0.75;;;25.70;97.00;;;;;;4946497;28;20395;-73
2023/05/12 11:52:59;;;;;;;1.45;0.90;;;25.70;96.40;;;;;;4952958;28;20477;-74
2023/05/12 11:55:25;;;;;;;1.25;0.75;;;25.90;95.40;;;;;;4956425;28;20049;-73
2023/05/12 11:57:57;;;;;;;1.55;0.75;;;26.10;95.40;;;;;;4959749;28;20038;-73
2023/05/12 12:00:34;;;;;;;;;;;26.20;94.60;;;;;;4953928;28;20999;-74
2023/05/12 12:03:12;;;;;;;3.08;0.88;;;26.10;94.10;;;;;;4959322;28;19921;-74
2023/05/12 12:05:41;;;;;;;1.60;1.00;;;26.10;94.60;;;;;;4956059;28;20034;-72
2023/05/12 12:08:12;;;;;;;1.73;0.80;;;26.40;94.00;;;;;;4939044;28;20030;-71
2023/05/12 12:10:42;;;;;;;2.50;0.90;;;26.80;93.00;;;;;;4945968;28;20038;-71
2023/05/12 12:13:08;;;;;;;1.08;0.60;;;27.20;93.20;;;;;;4937999;28;20054;-70
2023/05/12 12:15:34;;;;;;;1.55;0.77;;;27.70;93.00;;;;;;4970360;28;20595;-72
2023/05/12 12:18:00;;;;;;;2.78;0.85;;;27.90;91.40;;;;;;4953429;28;20520;-72
2023/05/12 12:20:27;;;;;;;2.47;0.70;;;27.90;91.00;;;;;;4936185;28;20035;-70
2023/05/12 12:22:53;;;;;;;1.23;0.80;;;27.60;91.00;;;;;;4962783;28;20046;-71
2023/05/12 12:25:20;;;;;;;2.50;0.90;;;27.40;90.40;;;;;;4956914;28;20037;-73
2023/05/12 12:27:47;;;;;;;1.70;0.90;;;26.90;90.20;;;;;;4954838;28;20034;-71
2023/05/12 12:30:15;;;;;;;1.50;1.10;;;26.60;90.80;;;;;;4946247;28;20030;-75
2023/05/12 12:32:43;;;;;;;1.98;1.10;;;26.40;90.80;;;;;;4938060;28;21365;-75
2023/05/12 12:35:10;;;;;;;2.95;1.08;;;26.30;89.60;;;;;;4956955;28;20036;-75
2023/05/12 12:37:36;;;;;;;1.35;0.82;;;26.20;90.00;;;;;;4956358;28;20480;-71
2023/05/12 12:40:07;;;;;;;2.85;0.90;;;26.10;89.10;;;;;;4951022;28;20065;-72